createdAt,value
2022-07-28T00:01:48.757Z,101906.88
2022-07-28T00:04:17.089Z,101909.09
2022-07-28T00:06:44.869Z,101902.63
2022-07-28T00:09:12.677Z,101908.50
2022-07-28T00:11:51.458Z,101889.06
2022-07-28T00:14:23.972Z,101900.59
2022-07-28T00:16:51.922Z,101898.19
2022-07-28T00:19:20.214Z,101888.75
2022-07-28T00:21:48.107Z,101899.44
2022-07-28T00:24:16.225Z,101897.75
2022-07-28T00:26:46.346Z,101898.72
2022-07-28T00:29:14.770Z,101898.00
2022-07-28T00:31:43.996Z,101892.94
2022-07-28T00:34:12.383Z,101892.94
2022-07-28T00:36:40.648Z,101893.94
2022-07-28T00:39:08.788Z,101893.22
2022-07-28T00:41:37.548Z,101888.28
2022-07-28T00:44:07.616Z,101889.28
2022-07-28T00:46:36.649Z,101889.41
2022-07-28T00:49:06.048Z,101892.22
2022-07-28T00:51:33.941Z,101879.84
2022-07-28T00:54:01.696Z,101892.22
2022-07-28T00:56:29.493Z,101887.97
2022-07-28T00:58:57.230Z,101883.75
2022-07-28T01:01:25.032Z,101883.16
2022-07-28T01:03:55.155Z,101879.78
2022-07-28T01:06:53.695Z,101882.59
2022-07-28T01:09:31.893Z,101882.75
2022-07-28T01:12:02.695Z,101883.44
2022-07-28T01:14:35.415Z,101885.41
2022-07-28T01:17:05.433Z,101885.41
2022-07-28T01:19:41.997Z,101870.50
2022-07-28T01:22:14.367Z,101874.16
2022-07-28T01:24:51.023Z,101879.34
2022-07-28T01:27:28.381Z,101880.47
2022-07-28T01:30:27.674Z,101873.72
2022-07-28T01:32:59.607Z,101878.06
2022-07-28T01:35:32.001Z,101862.88
2022-07-28T01:38:02.680Z,101871.72
2022-07-28T01:40:33.296Z,101870.41
2022-07-28T01:43:04.167Z,101862.28
2022-07-28T01:45:33.997Z,101857.78
2022-07-28T01:48:04.792Z,101857.78
2022-07-28T01:50:32.478Z,101851.63
2022-07-28T01:53:00.257Z,101846.28
2022-07-28T01:55:29.274Z,101845.31
2022-07-28T01:57:57.233Z,101851.09
2022-07-28T02:00:25.706Z,101844.09
2022-07-28T02:02:58.235Z,101847.44
2022-07-28T02:05:27.380Z,101839.72
2022-07-28T02:07:55.683Z,101841.81
2022-07-28T02:10:24.017Z,101847.44
2022-07-28T02:12:52.834Z,101852.22
2022-07-28T02:15:22.874Z,101847.97
2022-07-28T02:17:51.947Z,101849.94
2022-07-28T02:20:21.515Z,101847.41
2022-07-28T02:22:52.017Z,101844.88
2022-07-28T02:25:20.445Z,101846.13
2022-07-28T02:27:49.650Z,101853.41
2022-07-28T02:30:19.385Z,101843.59
2022-07-28T02:32:52.151Z,101841.06
2022-07-28T02:35:29.127Z,101842.28
2022-07-28T02:38:02.481Z,101850.13
2022-07-28T02:40:36.104Z,101851.25
2022-07-28T02:43:04.778Z,101848.13
2022-07-28T02:45:33.255Z,101843.34
2022-07-28T02:48:03.265Z,101850.00
2022-07-28T02:50:32.393Z,101839.03
2022-07-28T02:53:15.201Z,101841.22
2022-07-28T02:55:44.264Z,101846.56
2022-07-28T02:58:12.691Z,101844.28
2022-07-28T03:00:41.415Z,101836.69
2022-07-28T03:03:09.806Z,101829.81
2022-07-28T03:05:41.245Z,101833.56
2022-07-28T03:08:08.977Z,101837.47
2022-07-28T03:10:36.699Z,101847.50
2022-07-28T03:13:05.374Z,101841.34
2022-07-28T03:15:33.222Z,101843.91
2022-07-28T03:18:01.023Z,101841.34
2022-07-28T03:20:28.832Z,101848.34
2022-07-28T03:22:58.367Z,101842.09
2022-07-28T03:25:29.667Z,101837.69
2022-07-28T03:27:58.138Z,101836.84
2022-07-28T03:30:28.278Z,101847.78
2022-07-28T03:32:58.961Z,101847.91
2022-07-28T03:35:27.328Z,101839.78
2022-07-28T03:37:58.920Z,101846.94
2022-07-28T03:40:29.659Z,101845.13
2022-07-28T03:42:58.406Z,101858.56
2022-07-28T03:45:26.305Z,101853.94
2022-07-28T03:47:57.971Z,101851.66
2022-07-28T03:50:27.046Z,101848.06
2022-07-28T03:52:55.391Z,101852.63
2022-07-28T03:55:25.304Z,101853.38
2022-07-28T03:57:53.065Z,101850.81
2022-07-28T04:00:22.093Z,101857.97
2022-07-28T04:02:49.849Z,101852.91
2022-07-28T04:05:19.566Z,101852.28
2022-07-28T04:07:47.682Z,101854.13
2022-07-28T04:10:16.507Z,101854.25
2022-07-28T04:12:50.384Z,101860.28
2022-07-28T04:15:19.387Z,101856.66
2022-07-28T04:17:48.583Z,101858.34
2022-07-28T04:20:16.945Z,101850.75
2022-07-28T04:22:44.938Z,101859.19
2022-07-28T04:25:13.904Z,101864.53
2022-07-28T04:27:42.121Z,101855.84
2022-07-28T04:30:13.495Z,101858.34
2022-07-28T04:32:41.403Z,101860.28
2022-07-28T04:35:12.012Z,101862.22
2022-07-28T04:37:43.620Z,101865.59
2022-07-28T04:40:12.831Z,101869.84
2022-07-28T04:42:40.900Z,101867.56
2022-07-28T04:45:11.842Z,101870.56
2022-07-28T04:47:39.643Z,101872.84
2022-07-28T04:50:09.662Z,101864.03
2022-07-28T04:52:38.283Z,101867.97
2022-07-28T04:55:07.259Z,101865.06
2022-07-28T04:57:35.032Z,101862.13
2022-07-28T05:00:12.102Z,101855.97
2022-07-28T05:02:43.414Z,101859.81
2022-07-28T05:05:11.671Z,101861.13
2022-07-28T05:07:39.723Z,101859.16
2022-07-28T05:10:09.486Z,101852.16
2022-07-28T05:12:37.417Z,101856.97
2022-07-28T05:15:05.909Z,101848.38
2022-07-28T05:17:33.619Z,101846.56
2022-07-28T05:20:03.551Z,101849.22
2022-07-28T05:22:42.378Z,101844.88
2022-07-28T05:25:17.436Z,101849.97
2022-07-28T05:27:45.698Z,101851.38
2022-07-28T05:30:14.060Z,101851.84
2022-07-28T05:32:41.859Z,101854.22
2022-07-28T05:35:11.314Z,101855.94
2022-07-28T05:37:39.576Z,101854.00
2022-07-28T05:40:13.647Z,101859.06
2022-07-28T05:42:41.934Z,101865.81
2022-07-28T05:45:14.896Z,101864.44
2022-07-28T05:47:46.827Z,101859.44
2022-07-28T05:50:17.030Z,101866.22
2022-07-28T05:52:45.316Z,101852.16
2022-07-28T05:55:13.221Z,101858.63
2022-07-28T05:57:41.499Z,101863.44
2022-07-28T06:00:14.678Z,101874.56
2022-07-28T06:02:45.417Z,101867.97
2022-07-28T06:05:13.660Z,101872.31
2022-07-28T06:07:44.385Z,101859.00
2022-07-28T06:10:12.850Z,101867.59
2022-07-28T06:12:42.870Z,101869.13
2022-07-28T06:15:16.469Z,101852.56
2022-07-28T06:17:44.354Z,101863.97
2022-07-28T06:20:13.285Z,101875.09
2022-07-28T06:22:47.442Z,101876.78
2022-07-28T06:25:16.564Z,101878.22
2022-07-28T06:27:46.097Z,101870.06
2022-07-28T06:30:14.215Z,101872.19
2022-07-28T06:32:41.933Z,101865.72
2022-07-28T06:35:10.103Z,101873.47
2022-07-28T06:37:37.839Z,101866.44
2022-07-28T06:40:08.972Z,101873.19
2022-07-28T06:42:36.672Z,101872.06
2022-07-28T06:45:04.856Z,101858.88
2022-07-28T06:47:32.617Z,101870.69
2022-07-28T06:50:00.328Z,101856.63
2022-07-28T06:52:28.422Z,101862.88
2022-07-28T06:54:58.408Z,101866.25
2022-07-28T06:57:33.653Z,101856.69
2022-07-28T07:00:03.622Z,101864.03
2022-07-28T07:02:31.297Z,101864.72
2022-07-28T07:04:59.289Z,101860.06
2022-07-28T07:07:28.594Z,101848.16
2022-07-28T07:09:56.333Z,101861.22
2022-07-28T07:12:24.103Z,101852.94
2022-07-28T07:14:54.022Z,101859.53
2022-07-28T07:17:21.765Z,101851.41
2022-07-28T07:19:49.479Z,101857.84
2022-07-28T07:22:17.211Z,101856.44
2022-07-28T07:24:45.196Z,101856.03
2022-07-28T07:27:13.636Z,101849.41
2022-07-28T07:29:41.311Z,101845.50
2022-07-28T07:32:11.079Z,101842.53
2022-07-28T07:34:40.421Z,101842.97
2022-07-28T07:37:13.599Z,101831.97
2022-07-28T07:39:42.348Z,101842.78
2022-07-28T07:42:10.512Z,101831.69
2022-07-28T07:44:38.355Z,101826.19
2022-07-28T07:47:06.323Z,101846.31
2022-07-28T07:49:45.515Z,101832.81
2022-07-28T07:52:14.128Z,101833.34
2022-07-28T07:54:41.893Z,101831.13
2022-07-28T07:57:09.944Z,101827.19
2022-07-28T07:59:37.847Z,101826.59
2022-07-28T08:02:06.050Z,101826.31
2022-07-28T08:04:37.775Z,101824.63
2022-07-28T08:07:07.954Z,101819.16
2022-07-28T08:09:36.075Z,101824.06
2022-07-28T08:12:03.920Z,101824.75
2022-07-28T08:14:31.643Z,101819.28
2022-07-28T08:16:59.664Z,101823.91
2022-07-28T08:19:28.031Z,101831.66
2022-07-28T08:21:56.410Z,101828.53
2022-07-28T08:24:33.828Z,101824.03
2022-07-28T08:27:02.732Z,101819.25
2022-07-28T08:29:30.709Z,101816.13
2022-07-28T08:31:58.588Z,101816.53
2022-07-28T08:34:33.384Z,101811.03
2022-07-28T08:37:40.886Z,101813.59
2022-07-28T08:40:14.789Z,101818.94
2022-07-28T08:42:47.404Z,101822.03
2022-07-28T08:45:15.860Z,101813.84
2022-07-28T08:48:07.292Z,101816.94
2022-07-28T08:50:32.954Z,101814.78
2022-07-28T08:53:02.479Z,101825.97
2022-07-28T08:55:31.545Z,101811.41
2022-07-28T08:58:00.627Z,101806.44
2022-07-28T09:00:28.816Z,101815.13
2022-07-28T09:02:56.689Z,101811.88
2022-07-28T09:05:25.512Z,101803.16
2022-07-28T09:07:56.015Z,101810.06
2022-07-28T09:10:25.416Z,101802.28
2022-07-28T09:12:53.152Z,101804.06
2022-07-28T09:15:20.895Z,101807.09
2022-07-28T09:17:48.664Z,101807.81
2022-07-28T09:20:17.532Z,101801.16
2022-07-28T09:22:59.216Z,101811.94
2022-07-28T09:25:29.644Z,101803.44
2022-07-28T09:27:57.632Z,101796.00
2022-07-28T09:30:30.018Z,101797.91
2022-07-28T09:33:41.875Z,101797.00
2022-07-28T09:36:15.449Z,101800.03
2022-07-28T09:38:43.493Z,101802.72
2022-07-28T09:41:12.767Z,101797.84
2022-07-28T09:43:42.359Z,101792.72
2022-07-28T09:46:12.149Z,101800.84
2022-07-28T09:48:54.114Z,101791.28
2022-07-28T09:51:25.535Z,101794.66
2022-07-28T09:53:54.380Z,101790.13
2022-07-28T09:56:26.113Z,101788.44
2022-07-28T09:58:55.079Z,101790.13
2022-07-28T10:01:24.391Z,101788.75
2022-07-28T10:03:53.817Z,101787.06
2022-07-28T10:06:28.697Z,101780.19
2022-07-28T10:08:57.885Z,101781.69
2022-07-28T10:11:28.891Z,101774.91
2022-07-28T10:14:02.910Z,101782.06
2022-07-28T10:16:32.999Z,101775.81
2022-07-28T10:19:03.457Z,101767.56
2022-07-28T10:21:33.519Z,101773.31
2022-07-28T10:24:05.831Z,101779.84
2022-07-28T10:26:39.317Z,101769.81
2022-07-28T10:29:08.602Z,101772.69
2022-07-28T10:31:41.635Z,101764.84
2022-07-28T10:34:16.043Z,101761.94
2022-07-28T10:36:45.267Z,101769.69
2022-07-28T10:39:14.684Z,101761.59
2022-07-28T10:41:44.118Z,101757.38
2022-07-28T10:44:15.410Z,101765.22
2022-07-28T10:46:44.636Z,101749.25
2022-07-28T10:49:13.910Z,101750.25
2022-07-28T10:52:01.225Z,101753.25
2022-07-28T10:54:31.912Z,101741.50
2022-07-28T10:57:04.870Z,101737.19
2022-07-28T10:59:51.167Z,101729.56
2022-07-28T11:02:46.431Z,101743.56
2022-07-28T11:05:28.182Z,101733.88
2022-07-28T11:07:56.658Z,101746.16
2022-07-28T11:10:26.317Z,101742.19
2022-07-28T11:12:56.622Z,101743.31
2022-07-28T11:15:32.491Z,101736.94
2022-07-28T11:18:08.844Z,101745.16
2022-07-28T11:21:08.959Z,101734.75
2022-07-28T11:23:48.497Z,101727.38
2022-07-28T11:26:39.278Z,101729.75
2022-07-28T11:29:26.393Z,101718.69
2022-07-28T11:31:58.325Z,101722.56
2022-07-28T11:34:27.408Z,101721.53
2022-07-28T11:37:00.603Z,101719.69
2022-07-28T11:39:29.316Z,101710.28
2022-07-28T11:41:57.527Z,101709.28
2022-07-28T11:44:28.578Z,101716.00
2022-07-28T11:47:17.247Z,101712.31
2022-07-28T11:49:45.582Z,101712.31
2022-07-28T11:52:21.427Z,101706.28
2022-07-28T11:54:52.692Z,101702.94
2022-07-28T11:57:21.367Z,101689.34
2022-07-28T11:59:53.896Z,101697.56
2022-07-28T12:02:24.527Z,101691.31
2022-07-28T12:05:07.011Z,101682.59
2022-07-28T12:07:37.416Z,101690.66
2022-07-28T12:10:51.822Z,101690.50
2022-07-28T12:13:12.139Z,101688.97
2022-07-28T12:15:41.424Z,101672.53
2022-07-28T12:18:12.521Z,101669.66
2022-07-28T12:20:48.860Z,101672.19
2022-07-28T12:23:17.282Z,101665.63
2022-07-28T12:25:47.298Z,101675.72
2022-07-28T12:28:19.916Z,101654.91
2022-07-28T12:30:52.004Z,101668.03
2022-07-28T12:33:23.916Z,101663.31
2022-07-28T12:35:58.029Z,101653.56
2022-07-28T12:38:27.177Z,101652.53
2022-07-28T12:40:55.125Z,101655.22
2022-07-28T12:43:23.748Z,101658.06
2022-07-28T12:45:53.273Z,101658.56
2022-07-28T12:48:21.317Z,101650.81
2022-07-28T12:50:50.293Z,101661.25
2022-07-28T12:53:21.880Z,101654.00
2022-07-28T12:55:49.725Z,101657.88
2022-07-28T12:58:26.731Z,101651.00
2022-07-28T13:00:56.655Z,101655.19
2022-07-28T13:03:26.479Z,101650.34
2022-07-28T13:06:04.126Z,101645.44
2022-07-28T13:08:44.120Z,101650.81
2022-07-28T13:11:42.156Z,101644.78
2022-07-28T13:14:02.558Z,101640.25
2022-07-28T13:16:31.808Z,101642.25
2022-07-28T13:19:02.781Z,101635.81
2022-07-28T13:21:41.255Z,101636.94
2022-07-28T13:24:25.364Z,101641.91
2022-07-28T13:26:53.142Z,101625.44
2022-07-28T13:29:20.988Z,101638.53
2022-07-28T13:31:50.242Z,101624.63
2022-07-28T13:34:18.485Z,101625.59
2022-07-28T13:36:46.580Z,101626.81
2022-07-28T13:39:14.877Z,101632.53
2022-07-28T13:41:57.297Z,101622.44
2022-07-28T13:44:26.730Z,101628.16
2022-07-28T13:46:56.575Z,101619.19
2022-07-28T13:49:24.585Z,101614.63
2022-07-28T13:51:52.380Z,101614.56
2022-07-28T13:54:20.703Z,101605.34
2022-07-28T13:56:48.896Z,101615.66
2022-07-28T13:59:16.705Z,101614.28
2022-07-28T14:01:49.708Z,101605.84
2022-07-28T14:04:21.278Z,101600.81
2022-07-28T14:06:49.658Z,101594.22
2022-07-28T14:09:18.156Z,101598.44
2022-07-28T14:11:49.447Z,101601.25
2022-07-28T14:14:23.702Z,101587.78
2022-07-28T14:16:52.773Z,101575.47
2022-07-28T14:19:38.733Z,101588.38
2022-07-28T14:22:12.839Z,101589.22
2022-07-28T14:24:41.255Z,101591.25
2022-07-28T14:27:10.555Z,101583.84
2022-07-28T14:29:38.393Z,101579.78
2022-07-28T14:32:06.670Z,101583.44
2022-07-28T14:34:36.867Z,101585.22
2022-07-28T14:37:09.237Z,101583.00
2022-07-28T14:39:37.667Z,101569.91
2022-07-28T14:42:05.618Z,101585.16
2022-07-28T14:44:33.300Z,101591.00
2022-07-28T14:47:01.407Z,101578.16
2022-07-28T14:49:32.506Z,101578.16
2022-07-28T14:52:01.659Z,101578.84
2022-07-28T14:54:29.979Z,101577.16
2022-07-28T14:56:57.923Z,101579.00
2022-07-28T14:59:25.600Z,101577.81
2022-07-28T15:01:53.620Z,101567.31
2022-07-28T15:04:22.042Z,101561.88
2022-07-28T15:06:49.824Z,101562.00
2022-07-28T15:09:18.880Z,101565.16
2022-07-28T15:11:47.395Z,101558.47
2022-07-28T15:14:16.021Z,101567.97
2022-07-28T15:16:47.886Z,101558.78
2022-07-28T15:19:15.621Z,101557.00
2022-07-28T15:21:45.721Z,101555.78
2022-07-28T15:24:13.606Z,101567.94
2022-07-28T15:26:43.189Z,101567.22
2022-07-28T15:29:11.035Z,101558.19
2022-07-28T15:31:40.874Z,101560.78
2022-07-28T15:34:08.582Z,101557.34
2022-07-28T15:36:38.146Z,101558.88
2022-07-28T15:39:08.893Z,101557.16
2022-07-28T15:41:36.985Z,101556.72
2022-07-28T15:44:06.458Z,101561.66
2022-07-28T15:46:34.538Z,101555.03
2022-07-28T15:49:05.734Z,101554.31
2022-07-28T15:51:33.636Z,101553.53
2022-07-28T15:54:01.921Z,101550.75
2022-07-28T15:56:30.132Z,101546.25
2022-07-28T15:58:59.117Z,101545.09
2022-07-28T16:01:28.624Z,101548.72
2022-07-28T16:03:57.149Z,101547.41
2022-07-28T16:06:25.157Z,101545.72
2022-07-28T16:08:53.077Z,101539.91
2022-07-28T16:11:20.959Z,101545.94
2022-07-28T16:13:48.857Z,101547.69
2022-07-28T16:16:16.798Z,101537.31
2022-07-28T16:18:45.909Z,101545.41
2022-07-28T16:21:13.584Z,101540.34
2022-07-28T16:23:41.314Z,101540.75
2022-07-28T16:26:09.362Z,101535.81
2022-07-28T16:28:37.280Z,101536.63
2022-07-28T16:31:05.608Z,101549.13
2022-07-28T16:33:34.007Z,101540.34
2022-07-28T16:36:03.361Z,101540.25
2022-07-28T16:38:31.242Z,101541.47
2022-07-28T16:40:59.048Z,101535.78
2022-07-28T16:43:29.766Z,101536.47
2022-07-28T16:45:57.553Z,101535.53
2022-07-28T16:48:25.556Z,101533.19
2022-07-28T16:50:53.316Z,101532.09
2022-07-28T16:53:22.501Z,101523.22
2022-07-28T16:55:50.290Z,101532.69
2022-07-28T16:58:19.926Z,101532.13
2022-07-28T17:00:50.030Z,101530.16
2022-07-28T17:03:17.988Z,101531.38
2022-07-28T17:05:46.243Z,101526.53
2022-07-28T17:08:14.898Z,101529.22
2022-07-28T17:10:45.559Z,101524.56
2022-07-28T17:13:13.411Z,101520.56
2022-07-28T17:15:41.253Z,101516.38
2022-07-28T17:18:09.102Z,101524.63
2022-07-28T17:20:41.091Z,101522.31
2022-07-28T17:23:09.219Z,101534.09
2022-07-28T17:28:26.520Z,101527.38
2022-07-28T17:30:54.297Z,101526.56
2022-07-28T17:33:22.112Z,101526.94
2022-07-28T17:35:49.947Z,101524.38
2022-07-28T17:38:21.473Z,101527.09
2022-07-28T17:40:51.204Z,101527.25
2022-07-28T17:43:19.378Z,101525.78
2022-07-28T17:45:49.639Z,101522.25
2022-07-28T17:48:17.355Z,101526.81
2022-07-28T17:50:46.099Z,101524.94
2022-07-28T17:53:16.785Z,101526.81
2022-07-28T17:56:00.085Z,101527.16
2022-07-28T17:58:32.220Z,101526.13
2022-07-28T18:01:09.724Z,101519.06
2022-07-28T18:03:58.024Z,101518.44
2022-07-28T18:06:28.850Z,101524.81
2022-07-28T18:09:02.807Z,101523.34
2022-07-28T18:11:57.428Z,101526.16
2022-07-28T18:14:26.879Z,101524.66
2022-07-28T18:16:57.863Z,101517.81
2022-07-28T18:19:25.861Z,101523.53
2022-07-28T18:21:53.775Z,101517.81
2022-07-28T18:24:22.318Z,101521.53
2022-07-28T18:26:50.714Z,101525.19
2022-07-28T18:29:20.166Z,101524.53
2022-07-28T18:31:48.891Z,101531.59
2022-07-28T18:34:18.510Z,101513.97
2022-07-28T18:36:46.915Z,101515.19
2022-07-28T18:39:14.834Z,101520.91
2022-07-28T18:41:46.942Z,101526.28
2022-07-28T18:44:16.064Z,101530.81
2022-07-28T18:46:44.440Z,101522.09
2022-07-28T18:49:12.298Z,101515.69
2022-07-28T18:51:45.499Z,101517.91
2022-07-28T18:54:16.281Z,101523.31
2022-07-28T18:56:46.729Z,101532.34
2022-07-28T18:59:14.534Z,101524.28
2022-07-28T19:01:42.304Z,101533.38
2022-07-28T19:04:10.131Z,101527.34
2022-07-28T19:06:38.040Z,101524.00
2022-07-28T19:09:39.082Z,101516.47
2022-07-28T19:12:07.620Z,101525.53
2022-07-28T19:14:35.314Z,101527.75
2022-07-28T19:17:05.571Z,101535.84
2022-07-28T19:19:35.332Z,101542.03
2022-07-28T19:22:03.196Z,101536.81
2022-07-28T19:24:31.968Z,101540.69
2022-07-28T19:27:01.118Z,101543.06
2022-07-28T19:29:28.887Z,101542.25
2022-07-28T19:31:56.834Z,101551.69
2022-07-28T19:34:25.858Z,101544.13
2022-07-28T19:36:54.714Z,101549.69
2022-07-28T19:39:22.456Z,101547.38
2022-07-28T19:41:53.223Z,101561.78
2022-07-28T19:44:25.665Z,101555.75
2022-07-28T19:46:53.857Z,101559.13
2022-07-28T19:49:22.055Z,101561.16
2022-07-28T19:51:49.925Z,101566.53
2022-07-28T19:54:20.920Z,101557.81
2022-07-28T19:56:57.821Z,101573.44
2022-07-28T19:59:28.427Z,101565.88
2022-07-28T20:04:03.731Z,101573.63
2022-07-28T20:08:19.123Z,101579.00
2022-07-28T20:10:47.317Z,101591.44
2022-07-28T20:13:16.947Z,101586.06
2022-07-28T20:15:44.989Z,101583.06
2022-07-28T20:18:12.617Z,101585.78
2022-07-28T20:20:40.794Z,101596.50
2022-07-28T20:24:28.182Z,101587.94
2022-07-28T20:26:55.812Z,101589.44
2022-07-28T20:29:23.524Z,101594.16
2022-07-28T20:31:51.254Z,101599.88
2022-07-28T20:34:21.606Z,101595.66
2022-07-28T20:36:49.257Z,101601.22
2022-07-28T20:39:43.351Z,101602.72
2022-07-28T20:42:07.802Z,101603.25
2022-07-28T20:44:35.849Z,101606.09
2022-07-28T20:47:04.185Z,101601.88
2022-07-28T20:49:32.365Z,101604.25
2022-07-28T20:52:06.614Z,101602.91
2022-07-28T20:54:34.309Z,101604.94
2022-07-28T20:57:01.999Z,101615.00
2022-07-28T20:59:31.396Z,101619.66
2022-07-28T21:01:59.322Z,101615.66
2022-07-28T21:04:27.389Z,101610.78
2022-07-28T21:07:01.509Z,101615.63
2022-07-28T21:09:30.167Z,101616.13
2022-07-28T21:11:57.853Z,101615.63
2022-07-28T21:14:25.557Z,101616.94
2022-07-28T21:16:54.961Z,101622.66
2022-07-28T21:19:22.680Z,101627.84
2022-07-28T21:21:50.333Z,101620.16
2022-07-28T21:24:18.445Z,101627.31
2022-07-28T21:26:49.409Z,101622.81
2022-07-28T21:32:04.856Z,101626.81
2022-07-28T21:34:34.519Z,101632.38
2022-07-28T21:37:02.360Z,101634.53
2022-07-28T21:39:30.122Z,101634.69
2022-07-28T21:41:57.864Z,101629.31
2022-07-28T21:44:25.597Z,101633.84
2022-07-28T21:46:53.328Z,101637.72
2022-07-28T21:49:21.154Z,101636.19
2022-07-28T21:51:50.309Z,101636.84
2022-07-28T21:54:18.371Z,101630.78
2022-07-28T21:56:47.776Z,101629.63
2022-07-28T21:59:15.466Z,101626.78
2022-07-28T22:01:43.301Z,101623.25
2022-07-28T22:04:11.150Z,101627.09
2022-07-28T22:06:38.843Z,101626.59
2022-07-28T22:09:07.952Z,101623.25
2022-07-28T22:11:35.675Z,101621.56
2022-07-28T22:14:03.359Z,101627.75
2022-07-28T22:16:31.121Z,101632.28
2022-07-28T22:18:58.837Z,101629.41
2022-07-28T22:21:26.554Z,101624.53
2022-07-28T22:23:54.196Z,101632.72
2022-07-28T22:26:23.270Z,101634.75
2022-07-28T22:28:50.992Z,101635.75
2022-07-28T22:31:18.854Z,101630.22
2022-07-28T22:33:46.657Z,101630.53
2022-07-28T22:36:14.386Z,101628.19
2022-07-28T22:38:42.093Z,101631.03
2022-07-28T22:41:10.543Z,101635.38
2022-07-28T22:43:39.698Z,101625.13
2022-07-28T22:46:07.463Z,101627.59
2022-07-28T22:48:35.246Z,101625.56
2022-07-28T22:51:02.954Z,101625.03
2022-07-28T22:53:30.645Z,101624.34
2022-07-28T22:58:44.976Z,101632.69
2022-07-28T23:01:12.743Z,101625.38
2022-07-28T23:03:40.586Z,101626.03
2022-07-28T23:06:08.435Z,101624.34
2022-07-28T23:08:36.223Z,101609.25
2022-07-28T23:11:04.025Z,101616.50
2022-07-28T23:13:31.744Z,101608.13
2022-07-28T23:16:00.927Z,101611.63
2022-07-28T23:18:29.012Z,101618.34
2022-07-28T23:20:56.811Z,101614.81
2022-07-28T23:23:24.553Z,101609.91
2022-07-28T23:25:52.233Z,101612.78
2022-07-28T23:28:19.950Z,101617.13
2022-07-28T23:30:48.241Z,101606.69
2022-07-28T23:33:55.084Z,101611.22
2022-07-28T23:36:16.938Z,101608.88
2022-07-28T23:38:55.143Z,101610.72
2022-07-28T23:41:22.866Z,101610.19
2022-07-28T23:43:50.616Z,101601.13
2022-07-28T23:46:18.344Z,101598.75
2022-07-28T23:48:47.838Z,101599.28
2022-07-28T23:51:15.768Z,101600.13
2022-07-28T23:53:43.529Z,101597.97
2022-07-28T23:56:11.314Z,101599.78
2022-07-28T23:58:39.060Z,101596.44
